Johnstown, North Dakota
Current Conditions -  °F | °C
As of 6:58 AM on Wednesday 22 Oct 2014 (Local Time) from KRDR Reporting Station
Clear Clear  
Wind Chill: 55°   Ceiling: Unl
Heat Index: 55°   Visibility: 10mi
Dew Point: 43°   Wind: 24mph
Humidity: 63%   Direction: 190°S
Pressure: 29.79"   Gusts: 33mph
Location:  48.1078°N, 97.4492°W
Report Text: KRDR 221158Z AUTO 19021G29KT 10SM CLR 13/06 A2979 RMK AO2 PK WND 19031/43 SLP094 T01270059 10130 20123 55002
Loading
Personal Weather Stations






























Interactive Weather Map
Tropical Storm Tracking
New forecast layout! Learn more

10-Day Weather Forecast

Advertisements
Track Severe Weather on mobile